Boght Corners, New York
Current Conditions -  °F | °C
As of 11:12 PM on Wednesday 26 Nov 2014 (Local Time) from KALB Reporting Station
Light Snow Light Snow  
Wind Chill: 22°   Ceiling: 1400
Heat Index: 31°   Visibility: 1.5mi
Dew Point: 28°   Wind: 10mph
Humidity: 89%   Direction: 350°N
Pressure: 29.9"   Gusts: NA
Location:  42.7824°N, 73.7303°W
Report Text: KALB 270412Z 35009KT 1 1/2SM -SN BR SCT006 BKN014 OVC021 M01/M02 A2990 RMK AO2 P0001 T10061022
Loading
Personal Weather Stations






























Interactive Weather Map New forecast layout! Learn more

10-Day Weather Forecast

Advertisements
Track Severe Weather on mobile